Jaffrey, NH

2:19 AM EDT on November 01, 2014 (GMT -0400)
Town Pines | Change Station
CLOSE
Current Station
Personal Weather Station
Location: Rindge, NH
Elevation: 1302 ft
Nearby Weather Stations

Elev 1302 ft 42.74 °N, 72.03 °W | Updated 55 seconds ago

Mostly Cloudy
Mostly Cloudy
36.5 °F
Feels Like 36 °F
N
0.0
Wind Variable Wind from North
Gusts 0.0 mph

Today
High -- | Low -- °F
--% Chance of Precip.
Yesterday
High -- | Low -- °F
Precip. -- in
7:22 AM 5:40 PM
Waxing Gibbous, 63% visible
Pressure 30.00 in
Visibility 10.0 miles
Clouds Mostly Cloudy 8500 ft
Windchill 36 °F
Dew Point 32 °F
Humidity 27%
Rainfall -999.00 in
Snow Depth Not available.
UV 0 out of 12
Pollen .10 out of 12
Air Quality Not available.
Flu Activity Not available.
METAR KAFN 010552Z AUTO 00000KT 10SM BKN085 02/01 A2996 RMK AO2 SLP158 T00170006 10061 20017 55010

More Conditions Fewer Conditions

Pressure 30.00 in
Visibility 10.0 miles
Clouds Mostly Cloudy 8500 ft
Windchill 36 °F
Dew Point 32 °F
Humidity 27%
Rainfall -999.00 in
Snow Depth Not available.
UV 0 out of 12
Pollen .10 out of 12
Air Quality Not available.
Flu Activity Not available.
METAR KAFN 010552Z AUTO 00000KT 10SM BKN085 02/01 A2996 RMK AO2 SLP158 T00170006 10061 20017 55010

More Conditions Fewer Conditions

10-Day Weather Forecast

Almanac

Astronomy

Nov. 01, 2014 Rise Set
Actual Time
Civil Twilight
Nautical Twilight
Astronomical Twilight
Moon
Length of Visible Light
Length of Day
Tomorrow will be .
, % of the Moon is Illuminated

Today's Extremes

State Highs State Lows

Community

WunderPhotos

Upload Photos

1,766,866 photos uploaded!

WunderBlogs® & News

Nearby

Air Quality

  Air Quality AQ Index Pollutant
Not available.

Snow Depth

Station Depth Elevation

Earthquake Activity

City Distance Mag. Time & Date
Minimum magnitude displayed is 2.5.

Coastal Water Temperatures

Place Temperature

Nearby Weather Stations